sensor_id;sensor_type;location;lat;lon;timestamp;pressure;altitude;pressure_sealevel;temperature;humidity
68654;BME280;55636;51.108;13.622;2023-09-12T00:00:40;99960.25;;;19.25;55.91
68654;BME280;55636;51.108;13.622;2023-09-12T00:01:43;99966.16;;;19.23;55.77
68654;BME280;55636;51.108;13.622;2023-09-12T00:02:45;99957.28;;;19.21;56.09
68654;BME280;55636;51.108;13.622;2023-09-12T00:03:47;99962.53;;;19.23;56.02
68654;BME280;55636;51.108;13.622;2023-09-12T00:04:50;99964.81;;;19.21;56.12
68654;BME280;55636;51.108;13.622;2023-09-12T00:05:58;99961.03;;;19.17;56.02
68654;BME280;55636;51.108;13.622;2023-09-12T00:07:01;99970.28;;;19.17;56.22
68654;BME280;55636;51.108;13.622;2023-09-12T00:08:04;99964.97;;;19.16;56.17
68654;BME280;55636;51.108;13.622;2023-09-12T00:09:06;99962.19;;;19.16;56.36
68654;BME280;55636;51.108;13.622;2023-09-12T00:10:09;99968.09;;;19.14;56.18
68654;BME280;55636;51.108;13.622;2023-09-12T00:11:11;99967.28;;;19.14;56.38
68654;BME280;55636;51.108;13.622;2023-09-12T00:12:15;99970.06;;;19.14;56.44
68654;BME280;55636;51.108;13.622;2023-09-12T00:13:18;99960.84;;;19.13;56.49
68654;BME280;55636;51.108;13.622;2023-09-12T00:14:20;99967.59;;;19.12;56.84
68654;BME280;55636;51.108;13.622;2023-09-12T00:15:22;99970.72;;;19.10;56.67
68654;BME280;55636;51.108;13.622;2023-09-12T00:16:25;99966.28;;;19.09;57.20
68654;BME280;55636;51.108;13.622;2023-09-12T00:17:27;99971.88;;;19.09;57.21
68654;BME280;55636;51.108;13.622;2023-09-12T00:18:30;99967.78;;;19.07;57.45
68654;BME280;55636;51.108;13.622;2023-09-12T00:19:33;99967.78;;;19.07;57.57
68654;BME280;55636;51.108;13.622;2023-09-12T00:20:35;99964.47;;;19.05;57.77
68654;BME280;55636;51.108;13.622;2023-09-12T00:21:37;99971.19;;;19.04;57.54
68654;BME280;55636;51.108;13.622;2023-09-12T00:22:40;99968.75;;;19.02;57.40
68654;BME280;55636;51.108;13.622;2023-09-12T00:23:42;99975.47;;;19.01;57.65
68654;BME280;55636;51.108;13.622;2023-09-12T00:24:45;99978.28;;;19.01;57.83
68654;BME280;55636;51.108;13.622;2023-09-12T00:25:49;99970.22;;;19.00;57.49
68654;BME280;55636;51.108;13.622;2023-09-12T00:26:52;99973.34;;;18.98;57.85
68654;BME280;55636;51.108;13.622;2023-09-12T00:27:54;99971.69;;;18.97;57.71
68654;BME280;55636;51.108;13.622;2023-09-12T00:28:57;99971.69;;;18.97;58.04
68654;BME280;55636;51.108;13.622;2023-09-12T00:29:59;99974.81;;;18.96;58.02
68654;BME280;55636;51.108;13.622;2023-09-12T00:31:01;99969.22;;;18.96;57.70
68654;BME280;55636;51.108;13.622;2023-09-12T00:32:04;99973.16;;;18.94;57.97
68654;BME280;55636;51.108;13.622;2023-09-12T00:33:06;99974.31;;;18.93;57.82
68654;BME280;55636;51.108;13.622;2023-09-12T00:34:09;99969.03;;;18.92;57.69
68654;BME280;55636;51.108;13.622;2023-09-12T00:35:12;99965.44;;;18.91;58.19
68654;BME280;55636;51.108;13.622;2023-09-12T00:36:14;99965.44;;;18.91;58.27
68654;BME280;55636;51.108;13.622;2023-09-12T00:37:17;99965.78;;;18.90;57.90
68654;BME280;55636;51.108;13.622;2023-09-12T00:38:19;99959.34;;;18.89;57.96
68654;BME280;55636;51.108;13.622;2023-09-12T00:39:21;99961.66;;;18.87;58.01
68654;BME280;55636;51.108;13.622;2023-09-12T00:40:25;99958.00;;;18.87;58.23
68654;BME280;55636;51.108;13.622;2023-09-12T00:41:27;99954.41;;;18.86;58.29
68654;BME280;55636;51.108;13.622;2023-09-12T00:42:30;99958.00;;;18.87;58.34
68654;BME280;55636;51.108;13.622;2023-09-12T00:43:32;99955.53;;;18.85;58.44
68654;BME280;55636;51.108;13.622;2023-09-12T00:44:35;99958.34;;;18.85;58.13
68654;BME280;55636;51.108;13.622;2023-09-12T00:45:38;99956.69;;;18.84;58.22
68654;BME280;55636;51.108;13.622;2023-09-12T00:46:41;99962.28;;;18.84;58.11
68654;BME280;55636;51.108;13.622;2023-09-12T00:47:47;99961.81;;;18.82;58.13
68654;BME280;55636;51.108;13.622;2023-09-12T00:48:51;99963.75;;;18.82;58.17
68654;BME280;55636;51.108;13.622;2023-09-12T00:49:56;99966.88;;;18.80;57.96
68654;BME280;55636;51.108;13.622;2023-09-12T00:50:59;99966.09;;;18.80;57.51
68654;BME280;55636;51.108;13.622;2023-09-12T00:52:02;99961.13;;;18.76;57.48
68654;BME280;55636;51.108;13.622;2023-09-12T00:53:05;99963.09;;;18.76;57.40
68654;BME280;55636;51.108;13.622;2023-09-12T00:54:09;99961.78;;;18.73;56.95
68654;BME280;55636;51.108;13.622;2023-09-12T00:55:12;99964.91;;;18.72;57.00
68654;BME280;55636;51.108;13.622;2023-09-12T00:56:14;99975.25;;;18.71;56.81
68654;BME280;55636;51.108;13.622;2023-09-12T00:57:17;99965.25;;;18.70;57.38
68654;BME280;55636;51.108;13.622;2023-09-12T00:58:20;99959.13;;;18.68;57.23
68654;BME280;55636;51.108;13.622;2023-09-12T00:59:22;99968.66;;;18.67;57.40
68654;BME280;55636;51.108;13.622;2023-09-12T01:00:25;99965.88;;;18.67;57.27
68654;BME280;55636;51.108;13.622;2023-09-12T01:01:27;99962.59;;;18.65;57.27
68654;BME280;55636;51.108;13.622;2023-09-12T01:02:30;99962.88;;;18.64;57.66
68654;BME280;55636;51.108;13.622;2023-09-12T01:03:34;99960.44;;;18.62;57.67
68654;BME280;55636;51.108;13.622;2023-09-12T01:04:37;99963.22;;;18.62;57.45
68654;BME280;55636;51.108;13.622;2023-09-12T01:05:41;99963.56;;;18.60;57.52
68654;BME280;55636;51.108;13.622;2023-09-12T01:06:44;99961.09;;;18.59;57.19
68654;BME280;55636;51.108;13.622;2023-09-12T01:07:48;99963.06;;;18.58;57.17
68654;BME280;55636;51.108;13.622;2023-09-12T01:08:51;99964.22;;;18.57;57.37
68654;BME280;55636;51.108;13.622;2023-09-12T01:09:53;99964.03;;;18.54;57.29
68654;BME280;55636;51.108;13.622;2023-09-12T01:10:56;99963.22;;;18.53;57.36
68654;BME280;55636;51.108;13.622;2023-09-12T01:12:00;99962.72;;;18.51;57.08
68654;BME280;55636;51.108;13.622;2023-09-12T01:13:06;99960.25;;;18.50;57.30
68654;BME280;55636;51.108;13.622;2023-09-12T01:14:08;99965.00;;;18.49;57.13
68654;BME280;55636;51.108;13.622;2023-09-12T01:15:11;99960.88;;;18.47;57.28
68654;BME280;55636;51.108;13.622;2023-09-12T01:16:16;99960.38;;;18.44;57.42
68654;BME280;55636;51.108;13.622;2023-09-12T01:17:18;99964.31;;;18.43;57.24
68654;BME280;55636;51.108;13.622;2023-09-12T01:18:20;99961.00;;;18.41;57.65
68654;BME280;55636;51.108;13.622;2023-09-12T01:19:24;99963.31;;;18.39;57.68
68654;BME280;55636;51.108;13.622;2023-09-12T01:20:32;99968.91;;;18.39;57.64
68654;BME280;55636;51.108;13.622;2023-09-12T01:28:13;99963.06;;;18.27;57.38
68654;BME280;55636;51.108;13.622;2023-09-12T01:29:18;99967.03;;;18.26;57.40
68654;BME280;55636;51.108;13.622;2023-09-12T01:30:25;99952.53;;;18.24;57.49
68654;BME280;55636;51.108;13.622;2023-09-12T01:31:28;99961.59;;;18.21;57.43
68654;BME280;55636;51.108;13.622;2023-09-12T01:32:33;99966.66;;;18.19;57.29
68654;BME280;55636;51.108;13.622;2023-09-12T01:33:36;99974.53;;;18.17;57.60
68654;BME280;55636;51.108;13.622;2023-09-12T01:34:38;99960.06;;;18.15;58.06
68654;BME280;55636;51.108;13.622;2023-09-12T01:35:40;99961.22;;;18.14;58.28
68654;BME280;55636;51.108;13.622;2023-09-12T01:36:43;99965.47;;;18.11;58.18
68654;BME280;55636;51.108;13.622;2023-09-12T01:37:45;99965.47;;;18.11;58.22
68654;BME280;55636;51.108;13.622;2023-09-12T01:38:48;99970.56;;;18.09;58.49
68654;BME280;55636;51.108;13.622;2023-09-12T01:39:50;99966.94;;;18.08;58.44
68654;BME280;55636;51.108;13.622;2023-09-12T01:40:53;99963.66;;;18.06;58.68
68654;BME280;55636;51.108;13.622;2023-09-12T01:41:58;99972.34;;;18.05;58.94
68654;BME280;55636;51.108;13.622;2023-09-12T01:43:03;99963.47;;;18.03;58.94
68654;BME280;55636;51.108;13.622;2023-09-12T01:44:08;99971.00;;;18.02;59.02
68654;BME280;55636;51.108;13.622;2023-09-12T01:45:17;99963.78;;;18.01;58.83
68654;BME280;55636;51.108;13.622;2023-09-12T01:46:25;99966.88;;;18.00;59.27
68654;BME280;55636;51.108;13.622;2023-09-12T01:47:29;99972.78;;;17.98;59.19
68654;BME280;55636;51.108;13.622;2023-09-12T01:48:33;99966.38;;;17.98;59.49
68654;BME280;55636;51.108;13.622;2023-09-12T01:49:39;99965.88;;;17.95;59.67
68654;BME280;55636;51.108;13.622;2023-09-12T01:50:44;99969.81;;;17.94;59.44
68654;BME280;55636;51.108;13.622;2023-09-12T01:51:46;99971.78;;;17.94;59.89
68654;BME280;55636;51.108;13.622;2023-09-12T01:52:49;99974.91;;;17.92;60.06
68654;BME280;55636;51.108;13.622;2023-09-12T01:53:52;99970.47;;;17.91;59.95
68654;BME280;55636;51.108;13.622;2023-09-12T01:54:55;99973.56;;;17.90;60.17
68654;BME280;55636;51.108;13.622;2023-09-12T01:55:59;99965.53;;;17.88;60.65
68654;BME280;55636;51.108;13.622;2023-09-12T01:57:02;99969.47;;;17.87;60.49
68654;BME280;55636;51.108;13.622;2023-09-12T01:58:05;99967.78;;;17.86;60.61
68654;BME280;55636;51.108;13.622;2023-09-12T01:59:08;99970.09;;;17.84;60.46
68654;BME280;55636;51.108;13.622;2023-09-12T02:00:12;99972.06;;;17.84;60.59
68654;BME280;55636;51.108;13.622;2023-09-12T02:01:15;99968.78;;;17.82;60.83
68654;BME280;55636;51.108;13.622;2023-09-12T02:02:18;99975.50;;;17.81;60.59
68654;BME280;55636;51.108;13.622;2023-09-12T02:03:20;99968.25;;;17.79;60.97
68654;BME280;55636;51.108;13.622;2023-09-12T02:04:23;99971.38;;;17.78;61.07
68654;BME280;55636;51.108;13.622;2023-09-12T02:05:26;99972.50;;;17.77;61.13
68654;BME280;55636;51.108;13.622;2023-09-12T02:06:28;99978.41;;;17.75;60.92
68654;BME280;55636;51.108;13.622;2023-09-12T02:07:33;99982.88;;;17.76;60.99
68654;BME280;55636;51.108;13.622;2023-09-12T02:08:36;99979.56;;;17.74;61.34
68654;BME280;55636;51.108;13.622;2023-09-12T02:09:39;99975.44;;;17.72;61.45
68654;BME280;55636;51.108;13.622;2023-09-12T02:10:41;99981.84;;;17.72;61.22
68654;BME280;55636;51.108;13.622;2023-09-12T02:11:44;99980.22;;;17.71;61.40
68654;BME280;55636;51.108;13.622;2023-09-12T02:12:47;99970.97;;;17.71;61.23
68654;BME280;55636;51.108;13.622;2023-09-12T02:13:49;99972.97;;;17.70;61.46
68654;BME280;55636;51.108;13.622;2023-09-12T02:14:51;99974.09;;;17.69;61.42
68654;BME280;55636;51.108;13.622;2023-09-12T02:16:00;99975.25;;;17.68;61.46
68654;BME280;55636;51.108;13.622;2023-09-12T02:17:03;99976.06;;;17.69;61.31
68654;BME280;55636;51.108;13.622;2023-09-12T02:18:06;99973.28;;;17.69;61.71
68654;BME280;55636;51.108;13.622;2023-09-12T02:19:09;99973.63;;;17.67;61.74
68654;BME280;55636;51.108;13.622;2023-09-12T02:20:11;99968.03;;;17.67;61.71
68654;BME280;55636;51.108;13.622;2023-09-12T02:21:14;99972.44;;;17.68;61.37
68654;BME280;55636;51.108;13.622;2023-09-12T02:22:18;99967.19;;;17.67;61.46
68654;BME280;55636;51.108;13.622;2023-09-12T02:23:20;99969.97;;;17.67;61.46
68654;BME280;55636;51.108;13.622;2023-09-12T02:24:23;99970.81;;;17.67;61.70
68654;BME280;55636;51.108;13.622;2023-09-12T02:25:25;99971.13;;;17.66;61.46
68654;BME280;55636;51.108;13.622;2023-09-12T02:26:28;99973.09;;;17.65;61.49
68654;BME280;55636;51.108;13.622;2023-09-12T02:27:30;99967.50;;;17.65;61.41
68654;BME280;55636;51.108;13.622;2023-09-12T02:28:33;99963.06;;;17.64;61.76
68654;BME280;55636;51.108;13.622;2023-09-12T02:29:38;99973.09;;;17.65;61.81
68654;BME280;55636;51.108;13.622;2023-09-12T02:30:41;99972.28;;;17.65;61.94
68654;BME280;55636;51.108;13.622;2023-09-12T02:31:43;99973.09;;;17.65;61.92
68654;BME280;55636;51.108;13.622;2023-09-12T02:32:46;99970.28;;;17.65;61.64
68654;BME280;55636;51.108;13.622;2023-09-12T02:33:49;99978.69;;;17.65;61.80
68654;BME280;55636;51.108;13.622;2023-09-12T02:34:51;99972.28;;;17.65;61.99
68654;BME280;55636;51.108;13.622;2023-09-12T02:35:55;99977.88;;;17.65;62.09
68654;BME280;55636;51.108;13.622;2023-09-12T02:36:58;99965.84;;;17.64;62.22
68654;BME280;55636;51.108;13.622;2023-09-12T02:38:00;99970.28;;;17.65;62.27
68654;BME280;55636;51.108;13.622;2023-09-12T02:39:02;99970.63;;;17.64;62.34
68654;BME280;55636;51.108;13.622;2023-09-12T02:40:06;99974.22;;;17.64;62.27
68654;BME280;55636;51.108;13.622;2023-09-12T02:41:09;99972.56;;;17.63;61.92
68654;BME280;55636;51.108;13.622;2023-09-12T02:42:11;99978.16;;;17.63;61.94
68654;BME280;55636;51.108;13.622;2023-09-12T02:43:14;99970.94;;;17.62;62.01
68654;BME280;55636;51.108;13.622;2023-09-12T02:44:16;99971.75;;;17.62;62.38
68654;BME280;55636;51.108;13.622;2023-09-12T02:45:19;99975.38;;;17.63;62.23
68654;BME280;55636;51.108;13.622;2023-09-12T02:46:21;99972.91;;;17.61;61.98
68654;BME280;55636;51.108;13.622;2023-09-12T02:47:24;99973.22;;;17.60;62.27
68654;BME280;55636;51.108;13.622;2023-09-12T02:48:26;99970.44;;;17.60;62.14
68654;BME280;55636;51.108;13.622;2023-09-12T02:49:29;99973.22;;;17.60;62.52
68654;BME280;55636;51.108;13.622;2023-09-12T02:50:31;99974.34;;;17.59;62.19
68654;BME280;55636;51.108;13.622;2023-09-12T02:51:38;99981.06;;;17.58;62.17
68654;BME280;55636;51.108;13.622;2023-09-12T02:52:41;99973.53;;;17.58;62.36
68654;BME280;55636;51.108;13.622;2023-09-12T02:53:44;99980.25;;;17.57;62.36
68654;BME280;55636;51.108;13.622;2023-09-12T02:54:46;99974.16;;;17.55;62.46
68654;BME280;55636;51.108;13.622;2023-09-12T02:55:51;99978.94;;;17.55;62.28
68654;BME280;55636;51.108;13.622;2023-09-12T02:56:53;99976.66;;;17.57;62.21
68654;BME280;55636;51.108;13.622;2023-09-12T02:57:56;99983.69;;;17.54;62.02
68654;BME280;55636;51.108;13.622;2023-09-12T02:58:58;99975.63;;;17.53;62.20
68654;BME280;55636;51.108;13.622;2023-09-12T03:00:01;99986.78;;;17.53;62.41
68654;BME280;55636;51.108;13.622;2023-09-12T03:01:03;99979.56;;;17.52;62.29
68654;BME280;55636;51.108;13.622;2023-09-12T03:02:08;99979.06;;;17.50;62.43
68654;BME280;55636;51.108;13.622;2023-09-12T03:03:11;99977.06;;;17.50;62.46
68654;BME280;55636;51.108;13.622;2023-09-12T03:04:13;99979.34;;;17.48;62.69
68654;BME280;55636;51.108;13.622;2023-09-12T03:05:16;99984.09;;;17.47;63.09
68654;BME280;55636;51.108;13.622;2023-09-12T03:06:18;99976.88;;;17.46;62.98
68654;BME280;55636;51.108;13.622;2023-09-12T03:07:21;99971.63;;;17.45;62.98
68654;BME280;55636;51.108;13.622;2023-09-12T03:08:24;99976.34;;;17.44;62.88
68654;BME280;55636;51.108;13.622;2023-09-12T03:09:26;99970.28;;;17.42;62.77
68654;BME280;55636;51.108;13.622;2023-09-12T03:10:29;99979.78;;;17.41;63.10
68654;BME280;55636;51.108;13.622;2023-09-12T03:11:31;99968.94;;;17.40;63.22
68654;BME280;55636;51.108;13.622;2023-09-12T03:12:37;99976.47;;;17.39;63.12
68654;BME280;55636;51.108;13.622;2023-09-12T03:13:40;99978.78;;;17.37;63.04
68654;BME280;55636;51.108;13.622;2023-09-12T03:14:43;99972.34;;;17.37;63.10
68654;BME280;55636;51.108;13.622;2023-09-12T03:15:46;99978.25;;;17.35;63.04
68654;BME280;55636;51.108;13.622;2023-09-12T03:16:48;99973.47;;;17.36;62.99
68654;BME280;55636;51.108;13.622;2023-09-12T03:17:51;99975.47;;;17.35;62.92
68654;BME280;55636;51.108;13.622;2023-09-12T03:18:53;99979.38;;;17.34;62.89
68654;BME280;55636;51.108;13.622;2023-09-12T03:19:55;99975.78;;;17.34;63.17
68654;BME280;55636;51.108;13.622;2023-09-12T03:21:00;99973.00;;;17.34;63.18
68654;BME280;55636;51.108;13.622;2023-09-12T03:22:03;99974.94;;;17.33;63.05
68654;BME280;55636;51.108;13.622;2023-09-12T03:23:06;99972.16;;;17.33;63.11
68654;BME280;55636;51.108;13.622;2023-09-12T03:24:08;99964.94;;;17.32;63.04
68654;BME280;55636;51.108;13.622;2023-09-12T03:25:11;99967.72;;;17.32;63.46
68654;BME280;55636;51.108;13.622;2023-09-12T03:26:14;99972.47;;;17.32;63.20
68654;BME280;55636;51.108;13.622;2023-09-12T03:27:16;99966.06;;;17.31;63.46
68654;BME280;55636;51.108;13.622;2023-09-12T03:28:19;99968.88;;;17.31;63.18
68654;BME280;55636;51.108;13.622;2023-09-12T03:29:21;99965.22;;;17.30;63.48
68654;BME280;55636;51.108;13.622;2023-09-12T03:30:25;99964.41;;;17.30;63.19
68654;BME280;55636;51.108;13.622;2023-09-12T03:31:27;99963.28;;;17.31;63.43
68654;BME280;55636;51.108;13.622;2023-09-12T03:32:31;99968.88;;;17.31;63.15
68654;BME280;55636;51.108;13.622;2023-09-12T03:33:33;99960.50;;;17.31;63.52
68654;BME280;55636;51.108;13.622;2023-09-12T03:34:36;99962.16;;;17.32;63.47
68654;BME280;55636;51.108;13.622;2023-09-12T03:35:38;99964.94;;;17.32;63.72
68654;BME280;55636;51.108;13.622;2023-09-12T03:36:41;99962.44;;;17.30;63.59
68654;BME280;55636;51.108;13.622;2023-09-12T03:37:43;99964.09;;;17.32;63.65
68654;BME280;55636;51.108;13.622;2023-09-12T03:38:46;99962.44;;;17.30;63.85
68654;BME280;55636;51.108;13.622;2023-09-12T03:39:48;99963.28;;;17.31;63.61
68654;BME280;55636;51.108;13.622;2023-09-12T03:40:51;99961.63;;;17.30;64.00
68654;BME280;55636;51.108;13.622;2023-09-12T03:41:53;99960.81;;;17.29;63.67
68654;BME280;55636;51.108;13.622;2023-09-12T03:42:56;99964.41;;;17.30;64.24
68654;BME280;55636;51.108;13.622;2023-09-12T03:44:00;99950.47;;;17.30;63.83
68654;BME280;55636;51.108;13.622;2023-09-12T03:45:02;99957.19;;;17.29;64.08
68654;BME280;55636;51.108;13.622;2023-09-12T03:46:05;99959.16;;;17.28;63.79
68654;BME280;55636;51.108;13.622;2023-09-12T03:47:08;99961.94;;;17.28;63.74
68654;BME280;55636;51.108;13.622;2023-09-12T03:48:11;99957.19;;;17.29;63.90
68654;BME280;55636;51.108;13.622;2023-09-12T03:49:14;99957.19;;;17.29;63.99
68654;BME280;55636;51.108;13.622;2023-09-12T03:50:16;99965.56;;;17.29;64.27
68654;BME280;55636;51.108;13.622;2023-09-12T03:51:19;99962.75;;;17.29;63.99
68654;BME280;55636;51.108;13.622;2023-09-12T03:52:21;99961.09;;;17.28;63.91
68654;BME280;55636;51.108;13.622;2023-09-12T03:53:23;99957.50;;;17.27;64.09
68654;BME280;55636;51.108;13.622;2023-09-12T03:54:26;99962.25;;;17.27;63.87
68654;BME280;55636;51.108;13.622;2023-09-12T03:55:28;99963.09;;;17.27;64.01
68654;BME280;55636;51.108;13.622;2023-09-12T03:56:31;99961.44;;;17.26;63.89
68654;BME280;55636;51.108;13.622;2023-09-12T03:57:33;99962.25;;;17.27;63.90
68654;BME280;55636;51.108;13.622;2023-09-12T03:58:36;99961.44;;;17.26;63.95
68654;BME280;55636;51.108;13.622;2023-09-12T03:59:38;99971.78;;;17.26;63.94
68654;BME280;55636;51.108;13.622;2023-09-12T04:00:41;99965.34;;;17.25;63.97
68654;BME280;55636;51.108;13.622;2023-09-12T04:01:43;99970.94;;;17.25;64.06
68654;BME280;55636;51.108;13.622;2023-09-12T04:02:46;99973.72;;;17.25;64.03
68654;BME280;55636;51.108;13.622;2023-09-12T04:03:49;99968.13;;;17.25;63.82
68654;BME280;55636;51.108;13.622;2023-09-12T04:04:52;99976.84;;;17.24;63.83
68654;BME280;55636;51.108;13.622;2023-09-12T04:05:54;99976.84;;;17.24;63.93
68654;BME280;55636;51.108;13.622;2023-09-12T04:06:57;99974.03;;;17.24;63.88
68654;BME280;55636;51.108;13.622;2023-09-12T04:07:59;99965.19;;;17.22;64.16
68654;BME280;55636;51.108;13.622;2023-09-12T04:09:02;99973.03;;;17.20;64.02
68654;BME280;55636;51.108;13.622;2023-09-12T04:10:05;99967.44;;;17.20;63.73
68654;BME280;55636;51.108;13.622;2023-09-12T04:11:08;99971.91;;;17.21;63.90
68654;BME280;55636;51.108;13.622;2023-09-12T04:12:10;99968.59;;;17.19;64.17
68654;BME280;55636;51.108;13.622;2023-09-12T04:13:13;99971.38;;;17.19;63.84
68654;BME280;55636;51.108;13.622;2023-09-12T04:14:15;99971.38;;;17.19;63.89
68654;BME280;55636;51.108;13.622;2023-09-12T04:15:18;99966.09;;;17.17;64.31
68654;BME280;55636;51.108;13.622;2023-09-12T04:16:20;99976.47;;;17.17;64.04
68654;BME280;55636;51.108;13.622;2023-09-12T04:17:23;99979.25;;;17.17;64.37
68654;BME280;55636;51.108;13.622;2023-09-12T04:18:26;99975.63;;;17.16;64.27
68654;BME280;55636;51.108;13.622;2023-09-12T04:19:30;99972.00;;;17.16;64.41
68654;BME280;55636;51.108;13.622;2023-09-12T04:20:33;99978.72;;;17.15;64.15
68654;BME280;55636;51.108;13.622;2023-09-12T04:21:35;99976.78;;;17.15;64.12
68654;BME280;55636;51.108;13.622;2023-09-12T04:22:37;99968.41;;;17.15;64.07
68654;BME280;55636;51.108;13.622;2023-09-12T04:23:40;99972.00;;;17.16;64.20
68654;BME280;55636;51.108;13.622;2023-09-12T04:24:45;99973.16;;;17.15;64.51
68654;BME280;55636;51.108;13.622;2023-09-12T04:25:48;99969.22;;;17.16;64.25
68654;BME280;55636;51.108;13.622;2023-09-12T04:26:50;99978.41;;;17.16;64.50
68654;BME280;55636;51.108;13.622;2023-09-12T04:27:53;99968.91;;;17.17;64.30
68654;BME280;55636;51.108;13.622;2023-09-12T04:28:55;99972.81;;;17.16;64.45
68654;BME280;55636;51.108;13.622;2023-09-12T04:29:57;99972.00;;;17.16;64.62
68654;BME280;55636;51.108;13.622;2023-09-12T04:31:03;99970.03;;;17.16;64.37
68654;BME280;55636;51.108;13.622;2023-09-12T04:32:06;99977.28;;;17.17;64.54
68654;BME280;55636;51.108;13.622;2023-09-12T04:33:08;99965.63;;;17.15;64.70
68654;BME280;55636;51.108;13.622;2023-09-12T04:34:11;99970.34;;;17.15;64.73
68654;BME280;55636;51.108;13.622;2023-09-12T04:35:13;99965.63;;;17.15;64.65
68654;BME280;55636;51.108;13.622;2023-09-12T04:36:16;99969.22;;;17.16;64.60
68654;BME280;55636;51.108;13.622;2023-09-12T04:37:18;99961.16;;;17.14;64.67
68654;BME280;55636;51.108;13.622;2023-09-12T04:38:20;99963.13;;;17.13;64.58
68654;BME280;55636;51.108;13.622;2023-09-12T04:39:27;99964.28;;;17.12;64.61
68654;BME280;55636;51.108;13.622;2023-09-12T04:40:29;99964.56;;;17.11;64.43
68654;BME280;55636;51.108;13.622;2023-09-12T04:41:32;99967.34;;;17.11;64.61
68654;BME280;55636;51.108;13.622;2023-09-12T04:42:34;99975.72;;;17.11;64.60
68654;BME280;55636;51.108;13.622;2023-09-12T04:43:36;99960.97;;;17.10;64.96
68654;BME280;55636;51.108;13.622;2023-09-12T04:44:40;99964.56;;;17.11;64.63
68654;BME280;55636;51.108;13.622;2023-09-12T04:45:42;99967.69;;;17.09;64.49
68654;BME280;55636;51.108;13.622;2023-09-12T04:46:45;99974.91;;;17.10;64.52
68654;BME280;55636;51.108;13.622;2023-09-12T04:47:48;99972.13;;;17.10;64.91
68654;BME280;55636;51.108;13.622;2023-09-12T04:48:51;99963.75;;;17.10;64.63
68654;BME280;55636;51.108;13.622;2023-09-12T04:49:53;99974.09;;;17.10;64.89
68654;BME280;55636;51.108;13.622;2023-09-12T04:50:56;99972.13;;;17.10;64.81
68654;BME280;55636;51.108;13.622;2023-09-12T04:51:59;99973.78;;;17.11;64.50
68654;BME280;55636;51.108;13.622;2023-09-12T04:53:02;99966.53;;;17.10;64.44
68654;BME280;55636;51.108;13.622;2023-09-12T04:54:05;99962.63;;;17.11;64.55
68654;BME280;55636;51.108;13.622;2023-09-12T04:55:08;99964.28;;;17.12;64.42
68654;BME280;55636;51.108;13.622;2023-09-12T04:56:10;99963.44;;;17.12;64.68
68654;BME280;55636;51.108;13.622;2023-09-12T04:57:13;99968.69;;;17.13;64.63
68654;BME280;55636;51.108;13.622;2023-09-12T04:58:15;99967.88;;;17.13;64.48
68654;BME280;55636;51.108;13.622;2023-09-12T04:59:18;99963.13;;;17.13;64.32
68654;BME280;55636;51.108;13.622;2023-09-12T05:00:20;99963.13;;;17.13;64.48
68654;BME280;55636;51.108;13.622;2023-09-12T05:01:23;99964.78;;;17.15;64.67
68654;BME280;55636;51.108;13.622;2023-09-12T05:02:28;99964.78;;;17.15;64.50
68654;BME280;55636;51.108;13.622;2023-09-12T05:03:30;99960.03;;;17.15;64.60
68654;BME280;55636;51.108;13.622;2023-09-12T05:04:34;99962.50;;;17.17;64.26
68654;BME280;55636;51.108;13.622;2023-09-12T05:05:36;99964.16;;;17.18;64.15
68654;BME280;55636;51.108;13.622;2023-09-12T05:06:40;99959.72;;;17.17;64.44
68654;BME280;55636;51.108;13.622;2023-09-12T05:07:43;99954.94;;;17.17;64.24
68654;BME280;55636;51.108;13.622;2023-09-12T05:08:45;99964.97;;;17.18;64.61
68654;BME280;55636;51.108;13.622;2023-09-12T05:09:48;99960.72;;;17.21;64.24
68654;BME280;55636;51.108;13.622;2023-09-12T05:10:50;99969.09;;;17.21;64.63
68654;BME280;55636;51.108;13.622;2023-09-12T05:11:53;99961.53;;;17.21;64.38
68654;BME280;55636;51.108;13.622;2023-09-12T05:12:55;99966.50;;;17.24;64.49
68654;BME280;55636;51.108;13.622;2023-09-12T05:13:58;99970.13;;;17.25;64.41
68654;BME280;55636;51.108;13.622;2023-09-12T05:15:02;99967.84;;;17.27;64.42
68654;BME280;55636;51.108;13.622;2023-09-12T05:16:05;99970.31;;;17.28;64.48
68654;BME280;55636;51.108;13.622;2023-09-12T05:17:07;99972.78;;;17.30;64.31
68654;BME280;55636;51.108;13.622;2023-09-12T05:18:10;99967.22;;;17.30;64.40
68654;BME280;55636;51.108;13.622;2023-09-12T05:19:13;99969.69;;;17.32;64.33
68654;BME280;55636;51.108;13.622;2023-09-12T05:20:15;99965.44;;;17.34;64.13
68654;BME280;55636;51.108;13.622;2023-09-12T05:21:18;99960.38;;;17.36;64.44
68654;BME280;55636;51.108;13.622;2023-09-12T05:22:20;99963.66;;;17.38;64.37
68654;BME280;55636;51.108;13.622;2023-09-12T05:23:22;99961.06;;;17.42;64.26
68654;BME280;55636;51.108;13.622;2023-09-12T05:24:25;99960.72;;;17.43;64.32
68654;BME280;55636;51.108;13.622;2023-09-12T05:25:27;99966.53;;;17.47;64.22
68654;BME280;55636;51.108;13.622;2023-09-12T05:26:30;99969.53;;;17.51;64.16
68654;BME280;55636;51.108;13.622;2023-09-12T05:27:33;99972.53;;;17.54;63.71
68654;BME280;55636;51.108;13.622;2023-09-12T05:28:36;99977.47;;;17.57;63.34
68654;BME280;55636;51.108;13.622;2023-09-12T05:29:38;99980.78;;;17.59;63.57
68654;BME280;55636;51.108;13.622;2023-09-12T05:30:42;99974.56;;;17.62;63.34
68654;BME280;55636;51.108;13.622;2023-09-12T05:31:45;99973.41;;;17.64;63.36
68654;BME280;55636;51.108;13.622;2023-09-12T05:32:48;99979.69;;;17.69;62.98
68654;BME280;55636;51.108;13.622;2023-09-12T05:33:50;99977.09;;;17.73;62.98
68654;BME280;55636;51.108;13.622;2023-09-12T05:34:53;99974.50;;;17.76;62.94
68654;BME280;55636;51.108;13.622;2023-09-12T05:36:11;99980.56;;;17.78;62.93